sensor_id;sensor_type;location;lat;lon;timestamp;temperature;humidity
71551;DHT22;59367;48.414;9.872;2023-02-15T00:00:43;3.642711639;68.65844727
71551;DHT22;59367;48.414;9.872;2023-02-15T00:01:50;3.626689911;68.58978271
71551;DHT22;59367;48.414;9.872;2023-02-15T00:02:57;3.626689911;68.5333252
71551;DHT22;59367;48.414;9.872;2023-02-15T00:04:03;3.66941452;68.36090088
71551;DHT22;59367;48.414;9.872;2023-02-15T00:05:10;3.65606308;68.38684082
71551;DHT22;59367;48.414;9.872;2023-02-15T00:06:17;3.65606308;68.51043701
71551;DHT22;59367;48.414;9.872;2023-02-15T00:07:23;3.642711639;68.61114502
71551;DHT22;59367;48.414;9.872;2023-02-15T00:08:29;3.66941452;68.65386963
71551;DHT22;59367;48.414;9.872;2023-02-15T00:09:36;3.65606308;68.699646
71551;DHT22;59367;48.414;9.872;2023-02-15T00:10:42;3.642711639;68.67980957
71551;DHT22;59367;48.414;9.872;2023-02-15T00:11:48;3.65606308;68.70880127
71551;DHT22;59367;48.414;9.872;2023-02-15T00:12:54;3.66941452;68.70269775
71551;DHT22;59367;48.414;9.872;2023-02-15T00:14:00;3.682765961;68.58978271
71551;DHT22;59367;48.414;9.872;2023-02-15T00:15:07;3.66941452;68.61572266
71551;DHT22;59367;48.414;9.872;2023-02-15T00:16:14;3.65606308;68.67218018
71551;DHT22;59367;48.414;9.872;2023-02-15T00:17:21;3.682765961;68.61114502
71551;DHT22;59367;48.414;9.872;2023-02-15T00:18:27;3.613334656;68.53942871
71551;DHT22;59367;48.414;9.872;2023-02-15T00:19:33;3.65606308;68.44329834
71551;DHT22;59367;48.414;9.872;2023-02-15T00:20:40;3.65606308;68.46160889
71551;DHT22;59367;48.414;9.872;2023-02-15T00:21:46;3.66941452;68.43719482
71551;DHT22;59367;48.414;9.872;2023-02-15T00:22:53;3.682765961;68.41888428
71551;DHT22;59367;48.414;9.872;2023-02-15T00:24:00;3.65606308;68.38684082
71551;DHT22;59367;48.414;9.872;2023-02-15T00:25:07;3.66941452;68.43719482
71551;DHT22;59367;48.414;9.872;2023-02-15T00:26:14;3.65606308;68.50128174
71551;DHT22;59367;48.414;9.872;2023-02-15T00:27:20;3.626689911;68.60809326
71551;DHT22;59367;48.414;9.872;2023-02-15T00:28:26;3.626689911;68.60809326
71551;DHT22;59367;48.414;9.872;2023-02-15T00:29:33;3.570610046;68.62945557
71551;DHT22;59367;48.414;9.872;2023-02-15T00:30:39;3.586631775;68.62030029
71551;DHT22;59367;48.414;9.872;2023-02-15T00:31:45;3.599983215;68.48907471
71551;DHT22;59367;48.414;9.872;2023-02-15T00:32:52;3.613334656;68.47381592
71551;DHT22;59367;48.414;9.872;2023-02-15T00:34:00;3.613334656;68.51196289
71551;DHT22;59367;48.414;9.872;2023-02-15T00:35:07;3.613334656;68.58825684
71551;DHT22;59367;48.414;9.872;2023-02-15T00:36:13;3.626689911;68.54248047
71551;DHT22;59367;48.414;9.872;2023-02-15T00:37:20;3.642711639;68.55621338
71551;DHT22;59367;48.414;9.872;2023-02-15T00:38:26;3.613334656;68.60656738
71551;DHT22;59367;48.414;9.872;2023-02-15T00:39:33;3.626689911;68.52416992
71551;DHT22;59367;48.414;9.872;2023-02-15T00:40:39;3.626689911;68.52416992
71551;DHT22;59367;48.414;9.872;2023-02-15T00:41:45;3.613334656;68.48297119
71551;DHT22;59367;48.414;9.872;2023-02-15T00:42:52;3.613334656;68.58825684
71551;DHT22;59367;48.414;9.872;2023-02-15T00:43:58;3.626689911;68.66607666
71551;DHT22;59367;48.414;9.872;2023-02-15T00:45:04;3.599983215;68.699646
71551;DHT22;59367;48.414;9.872;2023-02-15T00:46:11;3.613334656;68.67218018
71551;DHT22;59367;48.414;9.872;2023-02-15T00:47:17;3.613334656;68.63555908
71551;DHT22;59367;48.414;9.872;2023-02-15T00:48:24;3.599983215;68.54705811
71551;DHT22;59367;48.414;9.872;2023-02-15T00:49:32;3.586631775;68.69812012
71551;DHT22;59367;48.414;9.872;2023-02-15T00:50:38;3.527885437;68.81866455
71551;DHT22;59367;48.414;9.872;2023-02-15T00:51:44;3.557258606;68.73931885
71551;DHT22;59367;48.414;9.872;2023-02-15T00:52:51;3.543907166;68.72711182
71551;DHT22;59367;48.414;9.872;2023-02-15T00:53:57;3.557258606;68.86291504
71551;DHT22;59367;48.414;9.872;2023-02-15T00:55:03;3.557258606;68.87207031
71551;DHT22;59367;48.414;9.872;2023-02-15T00:56:10;3.543907166;68.86901855
71551;DHT22;59367;48.414;9.872;2023-02-15T00:57:16;3.570610046;68.84613037
71551;DHT22;59367;48.414;9.872;2023-02-15T00:58:22;3.543907166;68.82171631
71551;DHT22;59367;48.414;9.872;2023-02-15T00:59:29;3.570610046;68.87359619
71551;DHT22;59367;48.414;9.872;2023-02-15T01:00:35;3.599983215;68.76373291
71551;DHT22;59367;48.414;9.872;2023-02-15T01:01:42;3.613334656;68.60656738
71551;DHT22;59367;48.414;9.872;2023-02-15T01:02:48;3.613334656;68.47381592
71551;DHT22;59367;48.414;9.872;2023-02-15T01:03:54;3.642711639;68.36547852
71551;DHT22;59367;48.414;9.872;2023-02-15T01:05:00;3.613334656;68.71185303
71551;DHT22;59367;48.414;9.872;2023-02-15T01:06:07;3.613334656;68.81408691
71551;DHT22;59367;48.414;9.872;2023-02-15T01:07:14;3.599983215;68.78509521
71551;DHT22;59367;48.414;9.872;2023-02-15T01:08:20;3.599983215;68.75457764
71551;DHT22;59367;48.414;9.872;2023-02-15T01:09:26;3.586631775;68.80950928
71551;DHT22;59367;48.414;9.872;2023-02-15T01:10:33;3.599983215;68.85986328
71551;DHT22;59367;48.414;9.872;2023-02-15T01:11:39;3.586631775;68.83087158
71551;DHT22;59367;48.414;9.872;2023-02-15T01:12:45;3.599983215;68.85986328
71551;DHT22;59367;48.414;9.872;2023-02-15T01:13:52;3.613334656;68.87359619
71551;DHT22;59367;48.414;9.872;2023-02-15T01:14:59;3.599983215;68.87817383
71551;DHT22;59367;48.414;9.872;2023-02-15T01:16:05;3.599983215;68.78509521
71551;DHT22;59367;48.414;9.872;2023-02-15T01:17:12;3.613334656;68.75
71551;DHT22;59367;48.414;9.872;2023-02-15T01:18:18;3.613334656;68.64318848
71551;DHT22;59367;48.414;9.872;2023-02-15T01:19:24;3.613334656;68.43719482
71551;DHT22;59367;48.414;9.872;2023-02-15T01:20:33;3.626689911;68.34259033
71551;DHT22;59367;48.414;9.872;2023-02-15T01:21:40;3.626689911;68.36395264
71551;DHT22;59367;48.414;9.872;2023-02-15T01:22:47;3.65606308;68.359375
71551;DHT22;59367;48.414;9.872;2023-02-15T01:23:53;3.642711639;68.40515137
71551;DHT22;59367;48.414;9.872;2023-02-15T01:24:59;3.626689911;68.4463501
71551;DHT22;59367;48.414;9.872;2023-02-15T01:26:07;3.642711639;68.46923828
71551;DHT22;59367;48.414;9.872;2023-02-15T01:27:13;3.626689911;68.45703125
71551;DHT22;59367;48.414;9.872;2023-02-15T01:28:19;3.626689911;68.48449707
71551;DHT22;59367;48.414;9.872;2023-02-15T01:29:26;3.613334656;68.49212646
71551;DHT22;59367;48.414;9.872;2023-02-15T01:30:32;3.626689911;68.48449707
71551;DHT22;59367;48.414;9.872;2023-02-15T01:31:38;3.613334656;68.49212646
71551;DHT22;59367;48.414;9.872;2023-02-15T01:32:45;3.642711639;68.63098145
71551;DHT22;59367;48.414;9.872;2023-02-15T01:33:51;3.626689911;68.61724854
71551;DHT22;59367;48.414;9.872;2023-02-15T01:34:58;3.642711639;68.55621338
71551;DHT22;59367;48.414;9.872;2023-02-15T01:36:05;3.613334656;68.42498779
71551;DHT22;59367;48.414;9.872;2023-02-15T01:37:11;3.642711639;68.31817627
71551;DHT22;59367;48.414;9.872;2023-02-15T01:38:17;3.599983215;68.29986572
71551;DHT22;59367;48.414;9.872;2023-02-15T01:39:24;3.626689911;68.28765869
71551;DHT22;59367;48.414;9.872;2023-02-15T01:40:30;3.613334656;68.29223633
71551;DHT22;59367;48.414;9.872;2023-02-15T01:41:36;3.599983215;68.36547852
71551;DHT22;59367;48.414;9.872;2023-02-15T01:42:43;3.599983215;68.40515137
71551;DHT22;59367;48.414;9.872;2023-02-15T01:43:50;3.599983215;68.44177246
71551;DHT22;59367;48.414;9.872;2023-02-15T01:44:59;3.599983215;68.46160889
71551;DHT22;59367;48.414;9.872;2023-02-15T01:46:06;3.613334656;68.37921143
71551;DHT22;59367;48.414;9.872;2023-02-15T01:47:16;3.586631775;68.36395264
71551;DHT22;59367;48.414;9.872;2023-02-15T01:48:25;3.613334656;68.32275391
71551;DHT22;59367;48.414;9.872;2023-02-15T01:49:32;3.557258606;68.33190918
71551;DHT22;59367;48.414;9.872;2023-02-15T01:50:40;3.514533997;68.32275391
71551;DHT22;59367;48.414;9.872;2023-02-15T01:51:50;3.501182556;68.41583252
71551;DHT22;59367;48.414;9.872;2023-02-15T01:52:59;3.458457947;68.63555908
71551;DHT22;59367;48.414;9.872;2023-02-15T01:54:16;3.431755066;68.83087158
71551;DHT22;59367;48.414;9.872;2023-02-15T01:55:27;3.415733337;69.03381348
71551;DHT22;59367;48.414;9.872;2023-02-15T01:56:36;3.415733337;69.09179688
71551;DHT22;59367;48.414;9.872;2023-02-15T01:57:45;3.373004913;69.1696167
71551;DHT22;59367;48.414;9.872;2023-02-15T01:58:52;3.402381897;69.27032471
71551;DHT22;59367;48.414;9.872;2023-02-15T02:00:03;3.389030457;69.23828125
71551;DHT22;59367;48.414;9.872;2023-02-15T02:01:11;3.402381897;69.07958984
71551;DHT22;59367;48.414;9.872;2023-02-15T02:02:19;3.389030457;69.21081543
71551;DHT22;59367;48.414;9.872;2023-02-15T02:03:35;3.389030457;69.27642822
71551;DHT22;59367;48.414;9.872;2023-02-15T02:04:45;3.373004913;69.12078857
71551;DHT22;59367;48.414;9.872;2023-02-15T02:05:53;3.402381897;69.05212402
71551;DHT22;59367;48.414;9.872;2023-02-15T02:07:00;3.415733337;68.98803711
71551;DHT22;59367;48.414;9.872;2023-02-15T02:08:07;3.389030457;69.18334961
71551;DHT22;59367;48.414;9.872;2023-02-15T02:09:13;3.389030457;69.2489624
71551;DHT22;59367;48.414;9.872;2023-02-15T02:10:22;3.402381897;69.20318604
71551;DHT22;59367;48.414;9.872;2023-02-15T02:11:29;3.373004913;69.1986084
71551;DHT22;59367;48.414;9.872;2023-02-15T02:12:36;3.359653473;69.31762695
71551;DHT22;59367;48.414;9.872;2023-02-15T02:13:44;3.314258575;69.43511963
71551;DHT22;59367;48.414;9.872;2023-02-15T02:14:52;3.373004913;69.42596436
71551;DHT22;59367;48.414;9.872;2023-02-15T02:16:04;3.373004913;69.28405762
71551;DHT22;59367;48.414;9.872;2023-02-15T02:17:20;3.373004913;69.16046143
71551;DHT22;59367;48.414;9.872;2023-02-15T02:18:37;3.373004913;69.15130615
71551;DHT22;59367;48.414;9.872;2023-02-15T02:20:13;3.373004913;69.15130615
71551;DHT22;59367;48.414;9.872;2023-02-15T02:25:04;3.314258575;69.02770996
71551;DHT22;59367;48.414;9.872;2023-02-15T02:27:37;3.314258575;69.13909912
71551;DHT22;59367;48.414;9.872;2023-02-15T02:29:04;3.314258575;69.05517578
71551;DHT22;59367;48.414;9.872;2023-02-15T02:31:47;3.274204254;69.08721924
71551;DHT22;59367;48.414;9.872;2023-02-15T02:33:27;3.300907135;69.0826416
71551;DHT22;59367;48.414;9.872;2023-02-15T02:34:41;3.314258575;68.97888184
71551;DHT22;59367;48.414;9.872;2023-02-15T02:35:59;3.359653473;68.94989014
71551;DHT22;59367;48.414;9.872;2023-02-15T02:37:14;3.346302032;68.91784668
71551;DHT22;59367;48.414;9.872;2023-02-15T02:38:28;3.346302032;68.90869141
71551;DHT22;59367;48.414;9.872;2023-02-15T02:39:44;3.346302032;68.88122559
71551;DHT22;59367;48.414;9.872;2023-02-15T02:41:00;3.330280304;68.82171631
71551;DHT22;59367;48.414;9.872;2023-02-15T02:42:15;3.346302032;68.84155273
71551;DHT22;59367;48.414;9.872;2023-02-15T02:43:29;3.346302032;68.74847412
71551;DHT22;59367;48.414;9.872;2023-02-15T02:44:45;3.359653473;68.76831055
71551;DHT22;59367;48.414;9.872;2023-02-15T02:46:00;3.346302032;68.85375977
71551;DHT22;59367;48.414;9.872;2023-02-15T02:47:13;3.359653473;68.97888184
71551;DHT22;59367;48.414;9.872;2023-02-15T02:48:24;3.359653473;68.93157959
71551;DHT22;59367;48.414;9.872;2023-02-15T02:49:38;3.373004913;68.86749268
71551;DHT22;59367;48.414;9.872;2023-02-15T02:50:45;3.373004913;68.88580322
71551;DHT22;59367;48.414;9.872;2023-02-15T02:52:01;3.389030457;68.89648438
71551;DHT22;59367;48.414;9.872;2023-02-15T02:53:09;3.373004913;68.8369751
71551;DHT22;59367;48.414;9.872;2023-02-15T02:54:16;3.389030457;68.84002686
71551;DHT22;59367;48.414;9.872;2023-02-15T02:55:27;3.415733337;68.65692139
71551;DHT22;59367;48.414;9.872;2023-02-15T02:56:40;3.431755066;68.48907471
71551;DHT22;59367;48.414;9.872;2023-02-15T02:57:53;3.402381897;68.49212646
71551;DHT22;59367;48.414;9.872;2023-02-15T02:59:04;3.431755066;68.56536865
71551;DHT22;59367;48.414;9.872;2023-02-15T03:01:27;3.415733337;68.67523193
71551;DHT22;59367;48.414;9.872;2023-02-15T03:02:38;3.415733337;68.62640381
71551;DHT22;59367;48.414;9.872;2023-02-15T03:03:47;3.402381897;68.65386963
71551;DHT22;59367;48.414;9.872;2023-02-15T03:04:57;3.415733337;68.65692139
71551;DHT22;59367;48.414;9.872;2023-02-15T03:06:09;3.359653473;68.66607666
71551;DHT22;59367;48.414;9.872;2023-02-15T03:07:19;3.389030457;68.69812012
71551;DHT22;59367;48.414;9.872;2023-02-15T03:08:31;3.402381897;68.71185303
71551;DHT22;59367;48.414;9.872;2023-02-15T03:09:41;3.373004913;68.72253418
71551;DHT22;59367;48.414;9.872;2023-02-15T03:10:48;3.359653473;68.78967285
71551;DHT22;59367;48.414;9.872;2023-02-15T03:11:57;3.359653473;68.97888184
71551;DHT22;59367;48.414;9.872;2023-02-15T03:13:04;3.346302032;69.04144287
71551;DHT22;59367;48.414;9.872;2023-02-15T03:14:11;3.314258575;69.08416748
71551;DHT22;59367;48.414;9.872;2023-02-15T03:15:21;3.314258575;69.10247803
71551;DHT22;59367;48.414;9.872;2023-02-15T03:16:29;3.330280304;69.12536621
71551;DHT22;59367;48.414;9.872;2023-02-15T03:17:42;3.346302032;69.12841797
71551;DHT22;59367;48.414;9.872;2023-02-15T03:18:51;3.346302032;69.09790039
71551;DHT22;59367;48.414;9.872;2023-02-15T03:20:01;3.346302032;69.07958984
71551;DHT22;59367;48.414;9.872;2023-02-15T03:21:10;3.346302032;69.05212402
71551;DHT22;59367;48.414;9.872;2023-02-15T03:22:21;3.346302032;69.14672852
71551;DHT22;59367;48.414;9.872;2023-02-15T03:23:30;3.346302032;69.17572021
71551;DHT22;59367;48.414;9.872;2023-02-15T03:24:39;3.373004913;69.15130615
71551;DHT22;59367;48.414;9.872;2023-02-15T03:25:52;3.330280304;69.02923584
71551;DHT22;59367;48.414;9.872;2023-02-15T03:26:59;3.359653473;69.03381348
71551;DHT22;59367;48.414;9.872;2023-02-15T03:28:08;3.300907135;69.03381348
71551;DHT22;59367;48.414;9.872;2023-02-15T03:29:15;3.300907135;69.04296875
71551;DHT22;59367;48.414;9.872;2023-02-15T03:30:24;3.258182526;69.1116333
71551;DHT22;59367;48.414;9.872;2023-02-15T03:31:33;3.258182526;69.09179688
71551;DHT22;59367;48.414;9.872;2023-02-15T03:32:43;3.287555695;69.05059814
71551;DHT22;59367;48.414;9.872;2023-02-15T03:33:53;3.300907135;69.05212402
71551;DHT22;59367;48.414;9.872;2023-02-15T03:35:00;3.314258575;69.09332275
71551;DHT22;59367;48.414;9.872;2023-02-15T03:36:11;3.314258575;69.10247803
71551;DHT22;59367;48.414;9.872;2023-02-15T03:37:26;3.287555695;68.9743042
71551;DHT22;59367;48.414;9.872;2023-02-15T03:38:40;3.231479645;69.07806396
71551;DHT22;59367;48.414;9.872;2023-02-15T03:39:52;3.188755035;69.08874512
71551;DHT22;59367;48.414;9.872;2023-02-15T03:41:01;3.188755035;69.15588379
71551;DHT22;59367;48.414;9.872;2023-02-15T03:42:13;3.175403595;69.14367676
71551;DHT22;59367;48.414;9.872;2023-02-15T03:43:29;3.188755035;69.16503906
71551;DHT22;59367;48.414;9.872;2023-02-15T03:44:45;3.188755035;69.20318604
71551;DHT22;59367;48.414;9.872;2023-02-15T03:45:55;3.188755035;69.23065186
71551;DHT22;59367;48.414;9.872;2023-02-15T03:47:08;3.215457916;69.37713623
71551;DHT22;59367;48.414;9.872;2023-02-15T03:48:17;3.244831085;69.41223145
71551;DHT22;59367;48.414;9.872;2023-02-15T03:49:27;3.244831085;69.31610107
71551;DHT22;59367;48.414;9.872;2023-02-15T03:50:37;3.258182526;69.26269531
71551;DHT22;59367;48.414;9.872;2023-02-15T03:51:47;3.258182526;69.14825439
71551;DHT22;59367;48.414;9.872;2023-02-15T03:52:55;3.258182526;69.12078857
71551;DHT22;59367;48.414;9.872;2023-02-15T03:54:04;3.244831085;69.02313232
71551;DHT22;59367;48.414;9.872;2023-02-15T03:55:11;3.231479645;68.8873291
71551;DHT22;59367;48.414;9.872;2023-02-15T03:56:18;3.287555695;68.80493164
71551;DHT22;59367;48.414;9.872;2023-02-15T03:57:26;3.274204254;68.73626709
71551;DHT22;59367;48.414;9.872;2023-02-15T03:58:33;3.258182526;68.78967285
71551;DHT22;59367;48.414;9.872;2023-02-15T03:59:39;3.244831085;68.83544922
71551;DHT22;59367;48.414;9.872;2023-02-15T04:00:49;3.258182526;68.92242432
71551;DHT22;59367;48.414;9.872;2023-02-15T04:02:07;3.258182526;69.0246582
71551;DHT22;59367;48.414;9.872;2023-02-15T04:03:26;3.244831085;68.93768311
71551;DHT22;59367;48.414;9.872;2023-02-15T04:04:38;3.202106476;69.03381348
71551;DHT22;59367;48.414;9.872;2023-02-15T04:05:46;3.231479645;69.04754639
71551;DHT22;59367;48.414;9.872;2023-02-15T04:06:52;3.215457916;69.03686523
71551;DHT22;59367;48.414;9.872;2023-02-15T04:07:58;3.215457916;68.86749268
71551;DHT22;59367;48.414;9.872;2023-02-15T04:09:04;3.231479645;68.78509521
71551;DHT22;59367;48.414;9.872;2023-02-15T04:10:12;3.258182526;68.71337891
71551;DHT22;59367;48.414;9.872;2023-02-15T04:11:18;3.244831085;68.53027344
71551;DHT22;59367;48.414;9.872;2023-02-15T04:12:24;3.287555695;68.46466064
71551;DHT22;59367;48.414;9.872;2023-02-15T04:13:34;3.274204254;68.65844727
71551;DHT22;59367;48.414;9.872;2023-02-15T04:14:41;3.258182526;68.71337891
71551;DHT22;59367;48.414;9.872;2023-02-15T04:15:47;3.258182526;68.78967285
71551;DHT22;59367;48.414;9.872;2023-02-15T04:16:53;3.258182526;68.8369751
71551;DHT22;59367;48.414;9.872;2023-02-15T04:17:59;3.258182526;68.7713623
71551;DHT22;59367;48.414;9.872;2023-02-15T04:19:08;3.215457916;68.70422363
71551;DHT22;59367;48.414;9.872;2023-02-15T04:20:14;3.244831085;68.60656738
71551;DHT22;59367;48.414;9.872;2023-02-15T04:21:22;3.258182526;68.67523193
71551;DHT22;59367;48.414;9.872;2023-02-15T04:22:28;3.244831085;68.76831055
71551;DHT22;59367;48.414;9.872;2023-02-15T04:23:34;3.258182526;68.71337891
71551;DHT22;59367;48.414;9.872;2023-02-15T04:24:41;3.258182526;68.26782227
71551;DHT22;59367;48.414;9.872;2023-02-15T04:25:47;3.258182526;68.10760498
71551;DHT22;59367;48.414;9.872;2023-02-15T04:26:54;3.258182526;68.08624268
71551;DHT22;59367;48.414;9.872;2023-02-15T04:28:00;3.258182526;68.17321777
71551;DHT22;59367;48.414;9.872;2023-02-15T04:29:06;3.274204254;68.38378906
71551;DHT22;59367;48.414;9.872;2023-02-15T04:30:15;3.231479645;68.38684082
71551;DHT22;59367;48.414;9.872;2023-02-15T04:31:21;3.258182526;68.39141846
71551;DHT22;59367;48.414;9.872;2023-02-15T04:32:27;3.244831085;68.24645996
71551;DHT22;59367;48.414;9.872;2023-02-15T04:33:34;3.231479645;68.02520752
71551;DHT22;59367;48.414;9.872;2023-02-15T04:34:40;3.215457916;68.08013916
71551;DHT22;59367;48.414;9.872;2023-02-15T04:35:46;3.202106476;68.19152832
71551;DHT22;59367;48.414;9.872;2023-02-15T04:36:52;3.231479645;68.21746826
71551;DHT22;59367;48.414;9.872;2023-02-15T04:37:58;3.215457916;68.08929443
71551;DHT22;59367;48.414;9.872;2023-02-15T04:39:05;3.215457916;67.96569824
71551;DHT22;59367;48.414;9.872;2023-02-15T04:40:14;3.231479645;67.93060303
71551;DHT22;59367;48.414;9.872;2023-02-15T04:41:20;3.244831085;67.79174805
71551;DHT22;59367;48.414;9.872;2023-02-15T04:42:26;3.215457916;67.72918701
71551;DHT22;59367;48.414;9.872;2023-02-15T04:43:33;3.202106476;67.70629883
71551;DHT22;59367;48.414;9.872;2023-02-15T04:44:39;3.202106476;67.70019531
71551;DHT22;59367;48.414;9.872;2023-02-15T04:45:50;3.159381866;67.62390137
71551;DHT22;59367;48.414;9.872;2023-02-15T04:46:56;3.146030426;67.527771
71551;DHT22;59367;48.414;9.872;2023-02-15T04:48:02;3.159381866;67.61474609
71551;DHT22;59367;48.414;9.872;2023-02-15T04:49:10;3.159381866;67.78411865
71551;DHT22;59367;48.414;9.872;2023-02-15T04:50:16;3.146030426;67.90618896
71551;DHT22;59367;48.414;9.872;2023-02-15T04:51:23;3.159381866;67.98400879
71551;DHT22;59367;48.414;9.872;2023-02-15T04:52:29;3.132678986;67.92449951
71551;DHT22;59367;48.414;9.872;2023-02-15T04:53:35;3.159381866;67.88024902
71551;DHT22;59367;48.414;9.872;2023-02-15T04:54:42;3.175403595;67.78869629
71551;DHT22;59367;48.414;9.872;2023-02-15T04:55:48;3.175403595;67.77038574
71551;DHT22;59367;48.414;9.872;2023-02-15T04:56:54;3.175403595;67.71087646
71551;DHT22;59367;48.414;9.872;2023-02-15T04:58:00;3.215457916;67.55065918
71551;DHT22;59367;48.414;9.872;2023-02-15T04:59:06;3.188755035;67.54455566
71551;DHT22;59367;48.414;9.872;2023-02-15T05:00:14;3.175403595;67.57202148
71551;DHT22;59367;48.414;9.872;2023-02-15T05:01:21;3.146030426;67.53692627
71551;DHT22;59367;48.414;9.872;2023-02-15T05:02:27;3.132678986;67.69561768
71551;DHT22;59367;48.414;9.872;2023-02-15T05:03:33;3.103302002;67.91687012
71551;DHT22;59367;48.414;9.872;2023-02-15T05:04:40;3.089950562;67.79174805
71551;DHT22;59367;48.414;9.872;2023-02-15T05:05:46;3.089950562;67.72460938
71551;DHT22;59367;48.414;9.872;2023-02-15T05:06:52;3.103302002;67.66052246
71551;DHT22;59367;48.414;9.872;2023-02-15T05:07:58;3.103302002;67.70019531
71551;DHT22;59367;48.414;9.872;2023-02-15T05:09:05;3.076599121;67.7520752
71551;DHT22;59367;48.414;9.872;2023-02-15T05:10:12;3.089950562;67.72460938
71551;DHT22;59367;48.414;9.872;2023-02-15T05:11:18;3.089950562;67.69714355
71551;DHT22;59367;48.414;9.872;2023-02-15T05:12:24;3.076599121;67.60864258
71551;DHT22;59367;48.414;9.872;2023-02-15T05:13:29;3.060577393;67.64526367
71551;DHT22;59367;48.414;9.872;2023-02-15T05:14:36;3.076599121;67.58117676
71551;DHT22;59367;48.414;9.872;2023-02-15T05:15:45;3.076599121;67.67730713
71551;DHT22;59367;48.414;9.872;2023-02-15T05:16:52;3.076599121;67.77954102
71551;DHT22;59367;48.414;9.872;2023-02-15T05:17:58;3.089950562;67.78259277
71551;DHT22;59367;48.414;9.872;2023-02-15T05:19:04;3.103302002;67.83294678
71551;DHT22;59367;48.414;9.872;2023-02-15T05:20:11;3.076599121;67.82836914
71551;DHT22;59367;48.414;9.872;2023-02-15T05:21:18;3.047225952;67.85125732
71551;DHT22;59367;48.414;9.872;2023-02-15T05:22:24;3.020523071;67.89398193
71551;DHT22;59367;48.414;9.872;2023-02-15T05:23:30;3.020523071;67.88330078
71551;DHT22;59367;48.414;9.872;2023-02-15T05:24:40;3.047225952;67.86956787
71551;DHT22;59367;48.414;9.872;2023-02-15T05:25:49;3.004501343;67.8527832
71551;DHT22;59367;48.414;9.872;2023-02-15T05:26:55;3.060577393;67.65441895
71551;DHT22;59367;48.414;9.872;2023-02-15T05:28:01;3.047225952;67.35839844
71551;DHT22;59367;48.414;9.872;2023-02-15T05:29:08;3.076599121;67.45758057
71551;DHT22;59367;48.414;9.872;2023-02-15T05:30:16;3.060577393;67.52166748
71551;DHT22;59367;48.414;9.872;2023-02-15T05:31:22;3.047225952;67.48199463
71551;DHT22;59367;48.414;9.872;2023-02-15T05:32:28;3.047225952;67.32025146
71551;DHT22;59367;48.414;9.872;2023-02-15T05:33:34;3.047225952;67.32940674
71551;DHT22;59367;48.414;9.872;2023-02-15T05:34:40;3.047225952;67.30194092
71551;DHT22;59367;48.414;9.872;2023-02-15T05:35:46;3.047225952;67.22564697
71551;DHT22;59367;48.414;9.872;2023-02-15T05:36:53;3.047225952;67.21496582
71551;DHT22;59367;48.414;9.872;2023-02-15T05:37:59;3.004501343;67.00134277
71551;DHT22;59367;48.414;9.872;2023-02-15T05:39:05;3.004501343;67.05627441
71551;DHT22;59367;48.414;9.872;2023-02-15T05:40:13;3.020523071;67.05932617
71551;DHT22;59367;48.414;9.872;2023-02-15T05:41:19;3.020523071;67.11578369
71551;DHT22;59367;48.414;9.872;2023-02-15T05:42:26;3.004501343;67.09594727
71551;DHT22;59367;48.414;9.872;2023-02-15T05:43:32;3.047225952;66.97845459
71551;DHT22;59367;48.414;9.872;2023-02-15T05:44:38;3.033874512;66.84570313
71551;DHT22;59367;48.414;9.872;2023-02-15T05:45:47;3.004501343;66.79077148
71551;DHT22;59367;48.414;9.872;2023-02-15T05:46:53;2.964447021;66.64428711
71551;DHT22;59367;48.414;9.872;2023-02-15T05:48:00;2.977798462;66.64733887
71551;DHT22;59367;48.414;9.872;2023-02-15T05:49:06;3.020523071;66.55731201
71551;DHT22;59367;48.414;9.872;2023-02-15T05:50:13;2.991149902;66.31774902
71551;DHT22;59367;48.414;9.872;2023-02-15T05:51:19;2.991149902;66.18499756
71551;DHT22;59367;48.414;9.872;2023-02-15T05:52:25;3.004501343;66.30096436
71551;DHT22;59367;48.414;9.872;2023-02-15T05:53:33;3.020523071;66.27349854
71551;DHT22;59367;48.414;9.872;2023-02-15T05:54:40;3.004501343;66.355896
71551;DHT22;59367;48.414;9.872;2023-02-15T05:55:46;2.991149902;66.2689209
71551;DHT22;59367;48.414;9.872;2023-02-15T05:56:52;3.004501343;66.2902832
71551;DHT22;59367;48.414;9.872;2023-02-15T05:57:59;2.991149902;66.45050049
71551;DHT22;59367;48.414;9.872;2023-02-15T05:59:05;2.977798462;66.61682129
71551;DHT22;59367;48.414;9.872;2023-02-15T06:00:14;2.977798462;66.5512085
71551;DHT22;59367;48.414;9.872;2023-02-15T06:01:21;2.935073853;66.49627686
71551;DHT22;59367;48.414;9.872;2023-02-15T06:02:27;2.935073853;66.53289795
71551;DHT22;59367;48.414;9.872;2023-02-15T06:03:33;2.905700684;66.61224365
71551;DHT22;59367;48.414;9.872;2023-02-15T06:04:39;2.892349243;66.6015625
71551;DHT22;59367;48.414;9.872;2023-02-15T06:05:45;2.865642548;66.66564941
71551;DHT22;59367;48.414;9.872;2023-02-15T06:06:52;2.822917938;66.78924561
71551;DHT22;59367;48.414;9.872;2023-02-15T06:07:58;2.793544769;66.92657471
71551;DHT22;59367;48.414;9.872;2023-02-15T06:09:05;2.780193329;66.82739258
71551;DHT22;59367;48.414;9.872;2023-02-15T06:11:18;2.780193329;66.93115234